createdAt,value
2018-07-31T00:02:55.277Z,1.53
2018-07-31T00:05:53.651Z,1.73
2018-07-31T00:08:51.971Z,1.80
2018-07-31T00:11:50.424Z,1.40
2018-07-31T00:14:48.654Z,2.10
2018-07-31T00:17:47.285Z,1.80
2018-07-31T00:20:45.790Z,2.20
2018-07-31T00:23:44.354Z,1.50
2018-07-31T00:26:43.204Z,1.40
2018-07-31T00:29:41.843Z,1.60
2018-07-31T00:32:40.449Z,1.97
2018-07-31T00:35:39.114Z,1.50
2018-07-31T00:38:37.394Z,1.63
2018-07-31T00:41:35.822Z,1.23
2018-07-31T00:44:34.062Z,1.20
2018-07-31T00:47:32.342Z,1.03
2018-07-31T00:50:31.017Z,1.30
2018-07-31T00:53:29.303Z,1.40
2018-07-31T00:56:27.618Z,1.50
2018-07-31T00:59:27.225Z,1.60
2018-07-31T01:02:25.736Z,1.80
2018-07-31T01:05:24.277Z,1.60
2018-07-31T01:08:23.456Z,1.57
2018-07-31T01:11:13.646Z,1.80
2018-07-31T01:14:03.832Z,2.03
2018-07-31T01:17:02.318Z,1.10
2018-07-31T01:20:00.711Z,2.30
2018-07-31T01:22:51.802Z,1.83
2018-07-31T01:25:50.807Z,2.10
2018-07-31T01:28:49.302Z,1.70
2018-07-31T01:31:47.703Z,1.17
2018-07-31T01:34:46.152Z,2.00
2018-07-31T01:37:44.472Z,1.87
2018-07-31T01:40:43.164Z,1.40
2018-07-31T01:43:41.580Z,1.50
2018-07-31T01:46:39.943Z,1.20
2018-07-31T01:49:38.322Z,1.00
2018-07-31T01:52:36.613Z,1.43
2018-07-31T01:55:34.873Z,1.00
2018-07-31T01:58:33.130Z,1.73
2018-07-31T02:01:31.608Z,1.80
2018-07-31T02:04:21.777Z,1.30
2018-07-31T02:07:20.004Z,1.20
2018-07-31T02:10:18.169Z,1.17
2018-07-31T02:13:17.287Z,1.13
2018-07-31T02:16:15.638Z,2.27
2018-07-31T02:19:05.891Z,1.20
2018-07-31T02:22:04.328Z,1.60
2018-07-31T02:25:02.630Z,1.80
2018-07-31T02:28:00.879Z,0.80
2018-07-31T02:30:59.227Z,0.70
2018-07-31T02:33:57.727Z,1.10
2018-07-31T02:36:56.053Z,1.20
2018-07-31T02:39:54.679Z,1.13
2018-07-31T02:42:53.087Z,1.70
2018-07-31T02:45:51.695Z,1.83
2018-07-31T02:48:49.971Z,1.40
2018-07-31T02:51:48.336Z,1.07
2018-07-31T02:54:46.666Z,1.00
2018-07-31T02:57:45.919Z,1.30
2018-07-31T03:00:44.227Z,1.30
2018-07-31T03:03:42.594Z,1.10
2018-07-31T03:06:41.147Z,0.97
2018-07-31T03:09:39.870Z,1.70
2018-07-31T03:12:38.143Z,1.27
2018-07-31T03:15:36.518Z,1.10
2018-07-31T03:18:35.090Z,1.00
2018-07-31T03:21:33.475Z,1.07
2018-07-31T03:24:31.753Z,1.90
2018-07-31T03:27:29.975Z,1.53
2018-07-31T03:30:28.476Z,0.90
2018-07-31T03:33:26.554Z,1.10
2018-07-31T03:36:24.747Z,0.97
2018-07-31T03:39:22.738Z,1.20
2018-07-31T03:42:21.581Z,1.37
2018-07-31T03:45:19.850Z,1.33
2018-07-31T03:48:10.062Z,1.40
2018-07-31T03:51:08.580Z,1.00
2018-07-31T03:54:06.835Z,0.97
2018-07-31T03:57:05.492Z,1.23
2018-07-31T04:00:03.805Z,1.00
2018-07-31T04:03:02.287Z,1.10
2018-07-31T04:06:00.674Z,0.87
2018-07-31T04:08:59.133Z,0.97
2018-07-31T04:11:50.291Z,1.20
2018-07-31T04:14:48.716Z,0.90
2018-07-31T04:17:47.028Z,0.97
2018-07-31T04:20:45.247Z,1.70
2018-07-31T04:23:43.693Z,1.53
2018-07-31T04:26:42.079Z,0.97
2018-07-31T04:29:40.547Z,1.10
2018-07-31T04:32:39.022Z,1.03
2018-07-31T04:35:37.461Z,1.27
2018-07-31T04:38:36.077Z,1.00
2018-07-31T04:41:34.214Z,1.20
2018-07-31T04:44:32.419Z,1.00
2018-07-31T04:47:30.626Z,1.10
2018-07-31T04:50:29.094Z,1.47
2018-07-31T04:53:28.158Z,1.17
2018-07-31T04:56:26.703Z,0.90
2018-07-31T04:59:25.244Z,1.13
2018-07-31T05:02:23.728Z,1.00
2018-07-31T05:05:21.958Z,1.20
2018-07-31T05:08:20.453Z,1.00
2018-07-31T05:11:18.952Z,1.00
2018-07-31T05:14:17.238Z,1.10
2018-07-31T05:17:15.745Z,1.10
2018-07-31T05:20:15.047Z,1.50
2018-07-31T05:23:13.327Z,1.20
2018-07-31T05:26:11.621Z,1.30
2018-07-31T05:29:09.924Z,1.13
2018-07-31T05:32:08.524Z,1.13
2018-07-31T05:35:07.228Z,1.40
2018-07-31T05:38:05.713Z,1.80
2018-07-31T05:41:04.224Z,1.47
2018-07-31T05:44:02.843Z,1.57
2018-07-31T05:47:01.153Z,1.73
2018-07-31T05:49:59.701Z,1.67
2018-07-31T05:52:58.246Z,1.30
2018-07-31T05:55:56.943Z,1.60
2018-07-31T05:58:55.790Z,2.00
2018-07-31T06:01:54.214Z,1.43
2018-07-31T06:04:52.648Z,1.47
2018-07-31T06:07:51.043Z,1.60
2018-07-31T06:10:49.426Z,1.40
2018-07-31T06:13:47.686Z,1.10
2018-07-31T06:16:46.947Z,1.37
2018-07-31T06:19:45.406Z,1.57
2018-07-31T06:22:44.162Z,1.87
2018-07-31T06:25:42.297Z,1.30
2018-07-31T06:28:40.516Z,1.57
2018-07-31T06:31:38.728Z,1.40
2018-07-31T06:34:37.133Z,1.63
2018-07-31T06:37:35.515Z,1.90
2018-07-31T06:40:33.977Z,1.40
2018-07-31T06:43:32.445Z,1.83
2018-07-31T06:46:30.835Z,2.00
2018-07-31T06:49:29.258Z,2.00
2018-07-31T06:52:27.706Z,1.70
2018-07-31T06:55:26.156Z,1.70
2018-07-31T06:58:24.672Z,1.80
2018-07-31T07:01:23.120Z,1.40
2018-07-31T07:04:21.675Z,1.50
2018-07-31T07:07:19.953Z,1.63
2018-07-31T07:10:18.311Z,2.17
2018-07-31T07:13:16.826Z,2.60
2018-07-31T07:16:15.170Z,1.60
2018-07-31T07:19:13.391Z,1.83
2018-07-31T07:22:11.759Z,2.60
2018-07-31T07:25:11.182Z,4.00
2018-07-31T07:28:10.622Z,2.80
2018-07-31T07:31:09.152Z,3.13
2018-07-31T07:34:07.791Z,4.17
2018-07-31T07:37:06.122Z,3.70
2018-07-31T07:40:04.968Z,3.90
2018-07-31T07:43:03.450Z,3.93
2018-07-31T07:46:01.898Z,3.53
2018-07-31T07:49:00.187Z,3.87
2018-07-31T07:51:58.747Z,3.70
2018-07-31T07:54:57.305Z,3.57
2018-07-31T07:57:55.643Z,2.63
2018-07-31T08:00:54.160Z,3.90
2018-07-31T08:03:52.758Z,4.27
2018-07-31T08:06:51.147Z,3.80
2018-07-31T08:09:49.693Z,2.23
2018-07-31T08:12:48.141Z,3.83
2018-07-31T08:15:46.578Z,2.97
2018-07-31T08:18:44.744Z,2.47
2018-07-31T08:21:43.139Z,2.50
2018-07-31T08:24:41.784Z,1.83
2018-07-31T08:27:40.145Z,2.23
2018-07-31T08:30:38.458Z,2.80
2018-07-31T08:33:36.824Z,2.33
2018-07-31T08:36:35.077Z,2.53
2018-07-31T08:39:33.154Z,2.10
2018-07-31T08:42:31.606Z,1.60
2018-07-31T08:45:30.082Z,1.70
2018-07-31T08:48:28.745Z,1.73
2018-07-31T08:51:27.520Z,1.97
2018-07-31T08:54:25.802Z,2.00
2018-07-31T08:57:24.183Z,1.93
2018-07-31T09:00:23.622Z,1.30
2018-07-31T09:03:22.098Z,1.00
2018-07-31T09:06:20.553Z,1.87
2018-07-31T09:09:20.772Z,2.17
2018-07-31T09:12:19.194Z,2.20
2018-07-31T09:15:17.573Z,2.60
2018-07-31T09:18:15.982Z,1.73
2018-07-31T09:21:13.995Z,2.03
2018-07-31T09:24:12.382Z,2.63
2018-07-31T09:27:02.673Z,2.73
2018-07-31T09:29:52.929Z,2.77
2018-07-31T09:32:57.346Z,2.97
2018-07-31T09:35:55.898Z,3.50
2018-07-31T09:38:54.625Z,3.60
2018-07-31T09:41:53.188Z,3.83
2018-07-31T09:44:51.839Z,2.73
2018-07-31T09:47:50.042Z,3.40
2018-07-31T09:50:48.814Z,3.90
2018-07-31T09:53:39.056Z,3.87
2018-07-31T09:56:37.827Z,3.20
2018-07-31T09:59:36.108Z,2.57
2018-07-31T10:02:34.287Z,2.33
2018-07-31T10:05:32.882Z,2.00
2018-07-31T10:08:32.195Z,2.00
2018-07-31T10:11:30.598Z,2.13
2018-07-31T10:14:29.222Z,1.67
2018-07-31T10:17:27.753Z,2.60
2018-07-31T10:20:26.152Z,2.20
2018-07-31T10:23:24.597Z,2.27
2018-07-31T10:26:22.922Z,2.10
2018-07-31T10:29:21.267Z,1.93
2018-07-31T10:32:19.833Z,2.73
2018-07-31T10:35:19.426Z,1.93
2018-07-31T10:38:17.532Z,2.00
2018-07-31T10:41:16.007Z,2.10
2018-07-31T10:44:14.613Z,2.77
2018-07-31T10:47:12.866Z,2.50
2018-07-31T10:50:11.595Z,2.10
2018-07-31T10:53:10.857Z,2.53
2018-07-31T10:56:09.025Z,1.73
2018-07-31T10:59:08.565Z,1.90
2018-07-31T11:02:07.969Z,1.90
2018-07-31T11:05:06.283Z,1.90
2018-07-31T11:08:04.491Z,1.67
2018-07-31T11:11:02.834Z,2.00
2018-07-31T11:14:01.511Z,1.90
2018-07-31T11:16:59.693Z,1.70
2018-07-31T11:19:58.124Z,1.47
2018-07-31T11:22:56.313Z,1.57
2018-07-31T11:25:54.758Z,1.47
2018-07-31T11:28:52.907Z,1.47
2018-07-31T11:31:51.218Z,1.40
2018-07-31T11:34:49.318Z,1.60
2018-07-31T11:37:47.784Z,1.70
2018-07-31T11:40:46.119Z,1.50
2018-07-31T11:43:44.541Z,1.47
2018-07-31T11:46:43.938Z,1.30
2018-07-31T11:49:43.675Z,1.27
2018-07-31T11:52:42.243Z,1.60
2018-07-31T11:55:40.511Z,1.77
2018-07-31T11:58:38.633Z,1.13
2018-07-31T12:01:36.948Z,1.13
2018-07-31T12:04:35.514Z,1.40
2018-07-31T12:07:34.040Z,1.30
2018-07-31T12:10:32.368Z,1.20
2018-07-31T12:13:30.985Z,1.20
2018-07-31T12:16:29.231Z,1.00
2018-07-31T12:19:27.847Z,1.00
2018-07-31T12:22:26.117Z,1.07
2018-07-31T12:25:24.627Z,1.80
2018-07-31T12:28:23.921Z,1.20
2018-07-31T12:31:22.206Z,1.40
2018-07-31T12:34:20.515Z,1.27
2018-07-31T12:37:18.964Z,1.37
2018-07-31T12:40:17.357Z,1.20
2018-07-31T12:43:15.739Z,1.27
2018-07-31T12:46:14.406Z,1.20
2018-07-31T12:49:12.826Z,0.97
2018-07-31T12:52:11.010Z,1.33
2018-07-31T12:55:09.468Z,1.23
2018-07-31T12:58:07.718Z,1.73
2018-07-31T13:01:06.206Z,1.27
2018-07-31T13:04:04.624Z,1.33
2018-07-31T13:07:03.282Z,1.73
2018-07-31T13:10:01.386Z,1.07
2018-07-31T13:12:59.840Z,1.53
2018-07-31T13:15:58.253Z,1.20
2018-07-31T13:18:48.624Z,1.10
2018-07-31T13:21:47.133Z,1.00
2018-07-31T13:24:45.823Z,0.80
2018-07-31T13:27:44.377Z,1.27
2018-07-31T13:30:43.026Z,1.67
2018-07-31T13:33:41.392Z,1.20
2018-07-31T13:36:40.107Z,1.30
2018-07-31T13:39:38.566Z,1.00
2018-07-31T13:42:36.890Z,1.10
2018-07-31T13:45:35.289Z,0.80
2018-07-31T13:48:33.696Z,0.60
2018-07-31T13:51:31.876Z,0.87
2018-07-31T13:54:30.146Z,1.57
2018-07-31T13:57:28.403Z,1.10
2018-07-31T14:00:26.711Z,0.83
2018-07-31T14:03:25.319Z,0.80
2018-07-31T14:06:23.612Z,1.30
2018-07-31T14:09:23.164Z,1.10
2018-07-31T14:12:21.598Z,1.10
2018-07-31T14:15:19.951Z,1.20
2018-07-31T14:18:18.383Z,1.20
2018-07-31T14:21:16.811Z,0.80
2018-07-31T14:24:15.077Z,0.93
2018-07-31T14:27:13.274Z,0.70
2018-07-31T14:30:11.858Z,0.80
2018-07-31T14:33:10.181Z,0.83
2018-07-31T14:36:08.602Z,0.70
2018-07-31T14:39:06.898Z,0.57
2018-07-31T14:42:05.326Z,0.60
2018-07-31T14:45:03.666Z,0.60
2018-07-31T14:48:02.513Z,0.83
2018-07-31T14:51:00.742Z,0.70
2018-07-31T14:53:59.171Z,1.00
2018-07-31T14:56:57.391Z,0.70
2018-07-31T15:00:04.147Z,1.10
2018-07-31T15:03:02.766Z,0.80
2018-07-31T15:06:01.078Z,0.63
2018-07-31T15:08:59.552Z,0.80
2018-07-31T15:11:58.145Z,0.63
2018-07-31T15:14:56.593Z,0.57
2018-07-31T15:17:54.797Z,0.80
2018-07-31T15:20:53.070Z,0.63
2018-07-31T15:23:51.424Z,0.57
2018-07-31T15:26:49.944Z,0.70
2018-07-31T15:29:48.555Z,0.80
2018-07-31T15:32:47.042Z,0.80
2018-07-31T15:35:45.624Z,0.60
2018-07-31T15:38:43.844Z,1.20
2018-07-31T15:41:42.192Z,0.70
2018-07-31T15:44:40.606Z,2.07
2018-07-31T15:47:39.245Z,0.80
2018-07-31T15:50:37.599Z,0.90
2018-07-31T15:53:35.719Z,0.60
2018-07-31T15:56:34.298Z,1.23
2018-07-31T15:59:32.380Z,1.00
2018-07-31T16:02:30.599Z,1.10
2018-07-31T16:05:28.759Z,1.00
2018-07-31T16:08:27.162Z,1.10
2018-07-31T16:11:25.312Z,0.63
2018-07-31T16:14:23.839Z,1.20
2018-07-31T16:17:15.039Z,0.77
2018-07-31T16:20:13.226Z,0.80
2018-07-31T16:23:11.619Z,1.33
2018-07-31T16:26:09.924Z,0.90
2018-07-31T16:29:08.169Z,0.80
2018-07-31T16:32:06.567Z,1.57
2018-07-31T16:35:05.091Z,0.80
2018-07-31T16:38:03.323Z,1.53
2018-07-31T16:41:02.674Z,1.30
2018-07-31T16:44:01.090Z,2.70
2018-07-31T16:46:59.226Z,1.73
2018-07-31T16:49:57.570Z,1.40
2018-07-31T16:52:56.128Z,1.20
2018-07-31T16:55:54.607Z,1.00
2018-07-31T16:58:53.051Z,0.80
2018-07-31T17:01:52.570Z,1.10
2018-07-31T17:04:51.150Z,0.90
2018-07-31T17:07:49.542Z,0.90
2018-07-31T17:10:48.096Z,0.80
2018-07-31T17:13:38.218Z,1.00
2018-07-31T17:16:28.311Z,1.00
2018-07-31T17:19:26.841Z,0.77
2018-07-31T17:22:25.215Z,0.90
2018-07-31T17:25:25.080Z,0.90
2018-07-31T17:28:23.660Z,1.20
2018-07-31T17:31:22.006Z,1.00
2018-07-31T17:34:20.348Z,1.30
2018-07-31T17:37:19.132Z,0.90
2018-07-31T17:40:17.529Z,0.77
2018-07-31T17:43:15.690Z,1.10
2018-07-31T17:46:14.072Z,1.10
2018-07-31T17:49:12.446Z,1.00
2018-07-31T17:52:11.175Z,1.20
2018-07-31T17:55:09.776Z,1.00
2018-07-31T17:57:59.875Z,1.00
2018-07-31T18:00:58.536Z,0.80
2018-07-31T18:03:57.084Z,0.97
2018-07-31T18:06:55.605Z,0.80
2018-07-31T18:09:54.253Z,0.70
2018-07-31T18:12:52.843Z,0.80
2018-07-31T18:15:51.346Z,0.90
2018-07-31T18:18:49.913Z,0.93
2018-07-31T18:21:48.340Z,1.10
2018-07-31T18:24:46.638Z,1.00
2018-07-31T18:27:44.747Z,1.00
2018-07-31T18:30:43.175Z,0.90
2018-07-31T18:33:41.384Z,0.80
2018-07-31T18:36:39.813Z,1.17
2018-07-31T18:39:38.113Z,1.10
2018-07-31T18:42:36.492Z,0.90
2018-07-31T18:45:35.225Z,0.83
2018-07-31T18:48:33.572Z,0.80
2018-07-31T18:51:31.978Z,0.90
2018-07-31T18:54:30.372Z,0.80
2018-07-31T18:57:28.794Z,0.90
2018-07-31T19:00:27.257Z,1.00
2018-07-31T19:03:25.718Z,0.80
2018-07-31T19:06:24.234Z,1.90
2018-07-31T19:09:22.767Z,0.97
2018-07-31T19:12:21.351Z,1.43
2018-07-31T19:15:19.871Z,1.60
2018-07-31T19:18:10.121Z,1.17
2018-07-31T19:21:09.646Z,1.00
2018-07-31T19:24:09.338Z,1.20
2018-07-31T19:27:08.095Z,1.30
2018-07-31T19:30:06.504Z,1.10
2018-07-31T19:33:04.986Z,0.90
2018-07-31T19:36:03.686Z,0.87
2018-07-31T19:39:02.044Z,1.10
2018-07-31T19:42:00.684Z,0.83
2018-07-31T19:45:01.018Z,1.10
2018-07-31T19:48:00.171Z,0.80
2018-07-31T19:50:59.403Z,1.03
2018-07-31T19:53:59.291Z,1.30
2018-07-31T19:56:57.595Z,1.40
2018-07-31T19:59:56.043Z,1.47
2018-07-31T20:02:54.637Z,1.60
2018-07-31T20:05:53.265Z,2.40
2018-07-31T20:08:52.878Z,2.03
2018-07-31T20:11:51.236Z,2.13
2018-07-31T20:14:49.495Z,1.87
2018-07-31T20:17:47.874Z,2.20
2018-07-31T20:20:46.059Z,1.50
2018-07-31T20:23:44.546Z,1.20
2018-07-31T20:26:42.713Z,1.10
2018-07-31T20:29:41.203Z,1.13
2018-07-31T20:32:39.458Z,0.83
2018-07-31T20:35:37.664Z,1.03
2018-07-31T20:38:36.087Z,1.57
2018-07-31T20:41:35.424Z,1.20
2018-07-31T20:44:33.563Z,1.00
2018-07-31T20:47:32.359Z,1.00
2018-07-31T20:50:30.780Z,1.23
2018-07-31T20:53:28.996Z,1.07
2018-07-31T20:56:27.279Z,1.30
2018-07-31T20:59:25.550Z,1.30
2018-07-31T21:02:24.010Z,1.17
2018-07-31T21:05:22.256Z,1.83
2018-07-31T21:08:20.622Z,1.30
2018-07-31T21:11:19.184Z,1.10
2018-07-31T21:14:17.790Z,1.87
2018-07-31T21:17:16.253Z,1.20
2018-07-31T21:20:14.930Z,1.17
2018-07-31T21:23:13.216Z,1.23
2018-07-31T21:26:11.686Z,1.27
2018-07-31T21:29:10.210Z,1.37
2018-07-31T21:32:08.590Z,1.20
2018-07-31T21:35:06.979Z,1.40
2018-07-31T21:38:05.322Z,1.30
2018-07-31T21:41:03.691Z,1.50
2018-07-31T21:44:03.102Z,1.30
2018-07-31T21:47:01.590Z,1.37
2018-07-31T21:49:51.875Z,1.23
2018-07-31T21:52:50.235Z,1.63
2018-07-31T21:55:48.548Z,1.07
2018-07-31T21:58:46.847Z,1.40
2018-07-31T22:01:45.333Z,1.40
2018-07-31T22:04:43.538Z,1.20
2018-07-31T22:07:41.915Z,1.50
2018-07-31T22:10:40.147Z,1.03
2018-07-31T22:13:38.419Z,1.30
2018-07-31T22:16:36.731Z,1.30
2018-07-31T22:19:35.172Z,1.40
2018-07-31T22:22:33.534Z,1.10
2018-07-31T22:25:31.779Z,1.37
2018-07-31T22:28:30.017Z,1.10
2018-07-31T22:31:28.443Z,1.30
2018-07-31T22:34:27.007Z,1.37
2018-07-31T22:37:25.236Z,1.00
2018-07-31T22:40:23.563Z,1.10
2018-07-31T22:43:21.981Z,1.20
2018-07-31T22:46:20.982Z,1.57
2018-07-31T22:49:19.209Z,1.23
2018-07-31T22:52:17.492Z,1.70
2018-07-31T22:55:16.157Z,1.50
2018-07-31T22:58:14.474Z,1.10
2018-07-31T23:01:12.918Z,1.40
2018-07-31T23:04:11.608Z,2.50
2018-07-31T23:07:09.764Z,1.33
2018-07-31T23:10:12.103Z,1.30
2018-07-31T23:13:10.663Z,1.60
2018-07-31T23:16:09.149Z,1.33
2018-07-31T23:19:07.837Z,1.60
2018-07-31T23:22:06.307Z,1.13
2018-07-31T23:25:04.656Z,1.17
2018-07-31T23:28:03.051Z,1.17
2018-07-31T23:31:01.533Z,1.47
2018-07-31T23:34:00.023Z,1.00
2018-07-31T23:36:58.463Z,1.20
2018-07-31T23:39:56.600Z,1.20
2018-07-31T23:42:55.208Z,1.13
2018-07-31T23:45:53.551Z,1.73
2018-07-31T23:48:52.014Z,1.20
2018-07-31T23:51:50.675Z,1.20
2018-07-31T23:54:49.336Z,1.10
2018-07-31T23:57:47.888Z,1.50
